Flight Track Log - Related Links

Times and Time Zones

All times are in EDT time to prevent confusion due to time zone crossing. See the SKW5631 flight status page for this flight to view local times or setup timezone preferences in your user account.

Time Position Orientation Groundspeed Altitude Reporting Facility
EDT Latitude Longitude Course Direction KTS MPH feet Rate Location/Type
Thu 01:52:21 PM 37.6667 -122.3667 293° West 178 205 1,800  Level Northern Cal TRACON
Thu 01:53:21 PM 37.6833 -122.4167 293° West 246 283 3,500 2,300 Climbing Northern Cal TRACON
Thu 01:54:21 PM 37.6167 -122.4500 202° Southwest 280 322 6,400 2,876 Climbing Northern Cal TRACON
Thu 01:55:22 PM 37.5333 -122.4500 180° South 287 330 9,300 2,390 Climbing Northern Cal TRACON
Thu 01:56:24 PM 37.4489 -122.4253 167° South 313 360 11,300 2,032 Climbing Oakland Center
Thu 01:57:26 PM 37.3836 -122.3372 133° Southeast 348 400 13,500 2,129 Climbing Oakland Center
Thu 01:58:28 PM 37.3236 -122.2369 127° Southeast 358 412 15,700 2,049 Climbing Oakland Center
Thu 01:59:29 PM 37.2606 -122.1347 128° Southeast 369 425 17,700 1,902 Climbing Oakland Center
Thu 02:00:31 PM 37.1972 -122.0286 127° Southeast 379 436 19,600 1,597 Climbing Oakland Center
Thu 02:01:33 PM 37.1308 -121.9217 128° Southeast 390 449 21,000 1,512 Climbing Oakland Center
Thu 02:02:34 PM 37.0633 -121.8097 127° Southeast 403 464 22,700 1,707 Climbing Oakland Center
Thu 02:03:36 PM 36.9778 -121.6761 129° Southeast 409 471 24,500 1,500 Climbing Oakland Center
Thu 02:04:38 PM 36.9072 -121.5608 127° Southeast 417 480 25,800 1,073 Climbing Oakland Center
Thu 02:05:39 PM 36.8347 -121.4406 127° Southeast 434 499 26,700 1,024 Climbing Oakland Center
Thu 02:06:41 PM 36.7514 -121.3111 129° Southeast 441 507 27,900 1,258 Climbing Oakland Center
Thu 02:07:43 PM 36.6753 -121.1883 128° Southeast 445 512 29,300 1,306 Climbing Oakland Center
Thu 02:08:45 PM 36.5997 -121.0672 128° Southeast 443 510 30,600 829 Climbing Oakland Center
Thu 02:09:46 PM 36.5233 -120.9442 128° Southeast 447 514 31,000 195 Climbing Oakland Center
Thu 02:10:48 PM 36.4419 -120.8167 128° Southeast 469 540 31,000  Level Oakland Center
Thu 02:11:50 PM 36.3603 -120.6844 127° Southeast 480 552 31,000  Level Oakland Center
Thu 02:12:52 PM 36.2753 -120.5519 128° Southeast 488 562 31,000  Level Oakland Center
Thu 02:13:53 PM 36.1725 -120.3914 128° Southeast 493 567 31,000  Level Oakland Center
Thu 02:14:55 PM 36.0897 -120.2614 128° Southeast 482 555 31,000  Level Oakland Center
Thu 02:15:57 PM 36.0078 -120.1347 129° Southeast 471 542 31,000  Level Oakland Center
Thu 02:16:58 PM 35.9258 -120.0092 129° Southeast 467 537 31,000  Level Oakland Center
Thu 02:18:00 PM 35.8439 -119.8833 129° Southeast 468 539 31,000  Level Oakland Center
Thu 02:19:02 PM 35.7642 -119.7606 129° Southeast 458 527 31,000  Level Oakland Center
Thu 02:20:03 PM 35.6811 -119.6339 129° Southeast 469 540 31,000  Level Oakland Center
Thu 02:21:05 PM 35.5972 -119.5075 129° Southeast 472 543 31,000  Level Oakland Center
Thu 02:22:06 PM 35.5158 -119.3806 128° Southeast 473 544 31,000  Level Oakland Center
Thu 02:23:01 PM 35.4325 -119.2542 129° Southeast 475 547 31,000 -205 Level Los Angeles Center
Thu 02:24:03 PM 35.3489 -119.1289 129° Southeast 474 545 30,600 -677 Descending Los Angeles Center
Thu 02:25:05 PM 35.2658 -119.0022 129° Southeast 476 548 29,600 -774 Descending Los Angeles Center
Thu 02:26:07 PM 35.1797 -118.8736 129° Southeast 486 559 29,000 -290 Descending Los Angeles Center
Thu 02:27:09 PM 35.0775 -118.7214 129° Southeast 483 556 29,000  Level Los Angeles Center
Thu 02:28:11 PM 34.9928 -118.5950 129° Southeast 482 555 29,000 -97 Level Los Angeles Center
Thu 02:29:13 PM 34.9019 -118.4628 130° Southeast 486 559 28,800 -624 Descending Los Angeles Center
Thu 02:30:16 PM 34.8164 -118.3375 130° Southeast 486 559 27,700 -1,248 Descending Los Angeles Center
Thu 02:31:18 PM 34.7325 -118.2136 129° Southeast 479 551 26,200 -2,129 Descending Los Angeles Center
Thu 02:32:20 PM 34.6456 -118.0892 130° Southeast 488 562 23,300 -2,758 Descending Los Angeles Center
Thu 02:33:22 PM 34.5803 -117.9539 120° Southeast 466 536 20,500 -1,790 Descending Los Angeles Center
Thu 02:34:24 PM 34.5103 -117.8033 119° Southeast 432 497 19,600 -919 Descending Los Angeles Center
Thu 02:35:26 PM 34.4533 -117.6786 119° Southeast 427 491 18,600 -919 Descending Los Angeles Center
Thu 02:36:28 PM 34.3956 -117.5528 119° Southeast 431 496 17,700 -726 Descending Los Angeles Center
Thu 02:37:30 PM 34.3319 -117.4117 119° Southeast 419 482 17,100 -288 Descending Los Angeles Center
Thu 02:38:33 PM 34.2753 -117.2900 119° Southeast 412 474 17,100 -432 Level Los Angeles Center
Thu 02:39:35 PM 34.2161 -117.1667 120° Southeast 407 468 16,200 -1,016 Descending Los Angeles Center
Thu 02:40:37 PM 34.1628 -117.0519 119° Southeast 395 455 15,000 -1,016 Descending Los Angeles Center
Thu 02:41:39 PM 34.1058 -116.9261 119° Southeast 383 441 14,100 -701 Descending Los Angeles Center
Thu 02:41:54 PM 34.1000 -116.9000 105° East 365 420 14,100  Level Southern California TRACON
Thu 02:42:41 PM 34.0569 -116.8247 125° Southeast 354 407 14,100 -661 Level Los Angeles Center
Thu 02:43:43 PM 34.0117 -116.7264 119° Southeast 336 387 12,900 -1,500 Descending Los Angeles Center
Thu 02:44:45 PM 33.9672 -116.6331 120° Southeast 321 369 11,000 -1,597 Descending Los Angeles Center
Thu 02:45:47 PM 33.9308 -116.5550 119° Southeast 283 326 9,600 -1,536 Descending Los Angeles Center
Thu 02:46:50 PM 33.8942 -116.4764 119° Southeast 261 300 7,800 -2,103 Descending Los Angeles Center
Thu 02:49:01 PM 33.8000 -116.3833 141° Southeast 199 229 2,800 -1,750 Descending Southern California TRACON
Thu 02:50:02 PM 33.7833 -116.4333 248° West 156 180 2,200 -783 Descending Southern California TRACON
Thu 02:50:56 PM 33.7833 -116.4667 270° West 142 163 1,300 -750 Descending Southern California TRACON
Thu 02:52:02 PM 33.8167 -116.5000 320° Northwest 131 151 700 -545 Descending Southern California TRACON
Thu 02:54:00 PM 33.8297 -116.5067 289° West  Level Estimated

Login

Don't have an account? Register now (free) for customized features, flight alerts, and more!